createdAt,value
2023-03-13T00:01:30.706Z,97793.25
2023-03-13T00:03:57.420Z,97787.78
2023-03-13T00:06:26.865Z,97782.00
2023-03-13T00:08:55.092Z,97786.50
2023-03-13T00:11:24.730Z,97791.13
2023-03-13T00:13:58.145Z,97785.38
2023-03-13T00:16:24.920Z,97775.97
2023-03-13T00:18:55.656Z,97777.59
2023-03-13T00:21:28.194Z,97782.78
2023-03-13T00:23:55.300Z,97767.09
2023-03-13T00:26:24.774Z,97784.72
2023-03-13T00:28:54.909Z,97767.00
2023-03-13T00:31:27.195Z,97775.09
2023-03-13T00:34:02.150Z,97761.31
2023-03-13T00:36:32.086Z,97775.56
2023-03-13T00:38:59.642Z,97769.50
2023-03-13T00:41:28.903Z,97743.94
2023-03-13T00:43:55.845Z,97747.53
2023-03-13T00:46:25.776Z,97739.56
2023-03-13T00:48:56.943Z,97754.06
2023-03-13T00:51:28.070Z,97752.22
2023-03-13T00:54:02.249Z,97756.59
2023-03-13T00:56:28.831Z,97751.09
2023-03-13T00:58:55.611Z,97762.53
2023-03-13T01:01:26.897Z,97755.69
2023-03-13T01:03:59.355Z,97750.56
2023-03-13T01:06:28.829Z,97757.03
2023-03-13T01:08:59.335Z,97752.03
2023-03-13T01:11:29.129Z,97722.72
2023-03-13T01:13:57.911Z,97737.41
2023-03-13T01:16:30.224Z,97706.44
2023-03-13T01:18:59.871Z,97719.44
2023-03-13T01:21:26.610Z,97712.97
2023-03-13T01:23:56.258Z,97727.03
2023-03-13T01:26:25.864Z,97704.63
2023-03-13T01:28:52.697Z,97696.00
2023-03-13T01:31:28.702Z,97703.50
2023-03-13T01:33:59.779Z,97697.22
2023-03-13T01:36:29.963Z,97701.91
2023-03-13T01:39:00.886Z,97701.06
2023-03-13T01:41:30.239Z,97702.91
2023-03-13T01:43:58.744Z,97689.66
2023-03-13T01:46:30.219Z,97686.31
2023-03-13T01:49:19.681Z,97674.78
2023-03-13T01:51:58.359Z,97685.13
2023-03-13T01:54:37.831Z,97654.34
2023-03-13T01:57:17.776Z,97681.63
2023-03-13T01:59:48.557Z,97660.03
2023-03-13T02:02:16.206Z,97669.47
2023-03-13T02:04:47.091Z,97676.84
2023-03-13T02:07:20.582Z,97678.34
2023-03-13T02:09:52.147Z,97667.34
2023-03-13T02:12:27.899Z,97663.03
2023-03-13T02:14:58.938Z,97671.56
2023-03-13T02:17:28.966Z,97663.66
2023-03-13T02:19:55.667Z,97642.03
2023-03-13T02:22:53.225Z,97660.22
2023-03-13T02:25:19.617Z,97667.72
2023-03-13T02:27:47.620Z,97657.47
2023-03-13T02:30:15.249Z,97646.50
2023-03-13T02:32:43.113Z,97612.28
2023-03-13T02:35:13.768Z,97644.84
2023-03-13T02:37:42.591Z,97651.97
2023-03-13T02:40:14.012Z,97638.63
2023-03-13T02:42:43.324Z,97630.00
2023-03-13T02:45:10.844Z,97628.19
2023-03-13T02:47:37.293Z,97627.19
2023-03-13T02:50:03.933Z,97620.50
2023-03-13T02:52:39.042Z,97597.25
2023-03-13T02:55:10.822Z,97599.78
2023-03-13T02:57:37.266Z,97598.88
2023-03-13T03:00:07.257Z,97601.53
2023-03-13T03:02:33.771Z,97589.84
2023-03-13T03:05:03.437Z,97597.34
2023-03-13T03:07:34.196Z,97591.16
2023-03-13T03:10:02.551Z,97586.47
2023-03-13T03:12:29.050Z,97602.00
2023-03-13T03:14:55.598Z,97584.72
2023-03-13T03:17:22.134Z,97561.50
2023-03-13T03:19:48.587Z,97586.38
2023-03-13T03:22:15.071Z,97565.63
2023-03-13T03:24:41.610Z,97567.13
2023-03-13T03:27:08.074Z,97559.47
2023-03-13T03:29:34.577Z,97553.91
2023-03-13T03:32:02.929Z,97551.88
2023-03-13T03:34:29.576Z,97580.34
2023-03-13T03:36:56.132Z,97567.97
2023-03-13T03:39:22.713Z,97562.13
2023-03-13T03:41:49.293Z,97575.75
2023-03-13T03:44:15.775Z,97577.72
2023-03-13T03:46:42.318Z,97554.41
2023-03-13T03:49:08.774Z,97512.88
2023-03-13T03:51:35.258Z,97554.50
2023-03-13T03:54:03.841Z,97531.56
2023-03-13T03:56:30.545Z,97530.06
2023-03-13T03:58:57.072Z,97532.88
2023-03-13T04:01:23.589Z,97522.03
2023-03-13T04:03:50.050Z,97531.38
2023-03-13T04:06:16.509Z,97516.94
2023-03-13T04:08:43.038Z,97530.03
2023-03-13T04:11:09.631Z,97529.47
2023-03-13T04:13:36.072Z,97527.78
2023-03-13T04:16:08.086Z,97522.22
2023-03-13T04:18:37.618Z,97516.50
2023-03-13T04:21:07.782Z,97523.84
2023-03-13T04:23:37.108Z,97529.84
2023-03-13T04:26:05.753Z,97531.22
2023-03-13T04:28:32.263Z,97550.22
2023-03-13T04:30:58.857Z,97538.00
2023-03-13T04:33:25.619Z,97553.72
2023-03-13T04:35:52.222Z,97539.75
2023-03-13T04:38:18.943Z,97519.00
2023-03-13T04:40:46.807Z,97524.91
2023-03-13T04:43:13.270Z,97530.75
2023-03-13T04:45:39.726Z,97515.81
2023-03-13T04:48:09.006Z,97516.78
2023-03-13T04:50:37.873Z,97509.53
2023-03-13T04:53:04.812Z,97509.38
2023-03-13T04:55:31.672Z,97494.94
2023-03-13T04:57:58.170Z,97495.69
2023-03-13T05:00:24.741Z,97488.63
2023-03-13T05:02:51.211Z,97474.31
2023-03-13T05:05:17.869Z,97482.88
2023-03-13T05:07:44.353Z,97481.03
2023-03-13T05:10:11.184Z,97476.88
2023-03-13T05:12:40.709Z,97474.13
2023-03-13T05:15:10.486Z,97505.75
2023-03-13T05:17:39.305Z,97489.63
2023-03-13T05:20:11.615Z,97489.81
2023-03-13T05:22:41.653Z,97482.41
2023-03-13T05:25:10.090Z,97453.34
2023-03-13T05:27:36.849Z,97442.09
2023-03-13T05:30:04.413Z,97456.50
2023-03-13T05:32:30.922Z,97430.28
2023-03-13T05:34:57.441Z,97432.88
2023-03-13T05:37:24.021Z,97415.69
2023-03-13T05:39:50.591Z,97439.94
2023-03-13T05:42:17.083Z,97448.91
2023-03-13T05:44:43.527Z,97444.91
2023-03-13T05:47:12.877Z,97443.53
2023-03-13T05:49:42.165Z,97439.28
2023-03-13T05:52:10.974Z,97435.97
2023-03-13T05:54:40.930Z,97442.06
2023-03-13T05:57:08.613Z,97417.75
2023-03-13T05:59:35.459Z,97421.81
2023-03-13T06:02:02.465Z,97402.47
2023-03-13T06:04:29.320Z,97418.94
2023-03-13T06:06:55.882Z,97400.75
2023-03-13T06:09:22.381Z,97403.34
2023-03-13T06:11:49.209Z,97397.47
2023-03-13T06:14:15.667Z,97415.50
2023-03-13T06:16:42.160Z,97406.81
2023-03-13T06:19:11.868Z,97393.78
2023-03-13T06:21:41.865Z,97380.63
2023-03-13T06:24:11.611Z,97379.34
2023-03-13T06:26:40.799Z,97403.09
2023-03-13T06:29:09.448Z,97398.88
2023-03-13T06:31:36.234Z,97400.03
2023-03-13T06:34:02.972Z,97395.75
2023-03-13T06:36:29.590Z,97414.13
2023-03-13T06:38:58.980Z,97416.84
2023-03-13T06:41:25.743Z,97390.06
2023-03-13T06:43:52.226Z,97371.63
2023-03-13T06:46:22.181Z,97354.47
2023-03-13T06:48:49.411Z,97364.09
2023-03-13T06:51:18.881Z,97357.44
2023-03-13T06:53:45.799Z,97367.13
2023-03-13T06:56:12.257Z,97362.00
2023-03-13T06:58:42.297Z,97369.38
2023-03-13T07:01:11.841Z,97332.56
2023-03-13T07:03:43.408Z,97329.91
2023-03-13T07:06:12.565Z,97334.50
2023-03-13T07:08:44.356Z,97329.19
2023-03-13T07:11:13.307Z,97332.59
2023-03-13T07:13:43.046Z,97326.78
2023-03-13T07:16:16.226Z,97328.63
2023-03-13T07:18:44.902Z,97312.50
2023-03-13T07:21:12.522Z,97321.22
2023-03-13T07:23:43.883Z,97327.81
2023-03-13T07:26:15.989Z,97306.78
2023-03-13T07:28:43.496Z,97303.16
2023-03-13T07:31:14.817Z,97313.28
2023-03-13T07:33:45.344Z,97309.50
2023-03-13T07:36:13.853Z,97309.59
2023-03-13T07:38:44.289Z,97306.13
2023-03-13T07:41:13.476Z,97306.38
2023-03-13T07:43:43.245Z,97301.28
2023-03-13T07:46:21.543Z,97304.97
2023-03-13T07:48:48.285Z,97297.69
2023-03-13T07:51:17.604Z,97295.47
2023-03-13T07:53:45.237Z,97292.78
2023-03-13T07:56:14.332Z,97295.47
2023-03-13T07:58:42.252Z,97284.03
2023-03-13T08:01:20.010Z,97288.09
2023-03-13T08:03:50.624Z,97275.66
2023-03-13T08:06:19.990Z,97280.00
2023-03-13T08:08:47.293Z,97284.28
2023-03-13T08:11:16.712Z,97275.41
2023-03-13T08:13:43.575Z,97266.44
2023-03-13T08:16:16.005Z,97274.72
2023-03-13T08:18:44.815Z,97261.84
2023-03-13T08:21:13.897Z,97262.44
2023-03-13T08:23:43.997Z,97259.53
2023-03-13T08:26:19.251Z,97251.66
2023-03-13T08:28:47.755Z,97249.75
2023-03-13T08:31:15.443Z,97259.22
2023-03-13T08:33:43.637Z,97254.75
2023-03-13T08:36:28.619Z,97244.84
2023-03-13T08:38:58.371Z,97244.94
2023-03-13T08:41:31.040Z,97255.91
2023-03-13T08:43:57.880Z,97248.75
2023-03-13T08:46:25.476Z,97258.81
2023-03-13T08:48:53.904Z,97252.69
2023-03-13T08:51:23.051Z,97262.28
2023-03-13T08:53:50.245Z,97252.56
2023-03-13T08:56:19.645Z,97242.28
2023-03-13T08:58:53.623Z,97252.03
2023-03-13T09:01:22.120Z,97240.03
2023-03-13T09:03:49.700Z,97237.44
2023-03-13T09:06:16.416Z,97232.00
2023-03-13T09:08:43.154Z,97233.97
2023-03-13T09:11:21.219Z,97230.72
2023-03-13T09:13:50.014Z,97221.31
2023-03-13T09:16:22.431Z,97228.53
2023-03-13T09:18:50.430Z,97222.88
2023-03-13T09:21:19.723Z,97211.78
2023-03-13T09:23:47.379Z,97197.53
2023-03-13T09:26:14.718Z,97193.41
2023-03-13T09:28:44.317Z,97181.09
2023-03-13T09:31:16.262Z,97168.88
2023-03-13T09:33:45.238Z,97175.31
2023-03-13T09:36:13.247Z,97177.59
2023-03-13T09:38:41.742Z,97178.22
2023-03-13T09:41:17.903Z,97169.06
2023-03-13T09:44:00.940Z,97168.81
2023-03-13T09:46:41.351Z,97138.81
2023-03-13T09:49:31.323Z,97164.19
2023-03-13T09:52:25.357Z,97153.97
2023-03-13T09:55:05.259Z,97126.63
2023-03-13T09:57:45.500Z,97134.25
2023-03-13T10:00:24.226Z,97116.91
2023-03-13T10:03:03.522Z,97109.63
2023-03-13T10:05:32.009Z,97101.44
2023-03-13T10:08:47.335Z,97098.94
2023-03-13T10:11:28.308Z,97094.75
2023-03-13T10:14:04.230Z,97083.41
2023-03-13T10:16:56.231Z,97073.66
2023-03-13T10:19:31.493Z,97069.25
2023-03-13T10:22:03.612Z,97070.91
2023-03-13T10:24:42.391Z,97057.56
2023-03-13T10:27:15.950Z,97043.34
2023-03-13T10:29:45.712Z,97053.13
2023-03-13T10:32:17.472Z,97044.22
2023-03-13T10:34:59.242Z,97024.47
2023-03-13T10:37:41.528Z,97020.19
2023-03-13T10:40:26.125Z,97024.78
2023-03-13T10:43:00.109Z,97016.31
2023-03-13T10:45:30.978Z,96985.13
2023-03-13T10:48:02.006Z,96999.00
2023-03-13T10:50:34.531Z,96992.38
2023-03-13T10:53:25.727Z,96991.97
2023-03-13T10:55:54.413Z,96966.25
2023-03-13T10:58:30.431Z,96979.63
2023-03-13T11:01:22.458Z,96961.16
2023-03-13T11:03:51.441Z,96972.00
2023-03-13T11:06:32.945Z,96967.00
2023-03-13T11:09:03.810Z,96961.63
2023-03-13T11:11:32.280Z,96943.03
2023-03-13T11:14:12.903Z,96945.88
2023-03-13T11:16:49.283Z,96918.50
2023-03-13T11:19:27.218Z,96931.94
2023-03-13T11:21:53.732Z,96906.69
2023-03-13T11:24:43.426Z,96905.03
2023-03-13T11:27:48.141Z,96881.53
2023-03-13T11:30:47.698Z,96880.63
2023-03-13T11:33:22.519Z,96893.75
2023-03-13T11:36:03.735Z,96869.47
2023-03-13T11:39:23.891Z,96866.22
2023-03-13T11:41:59.026Z,96864.91
2023-03-13T11:44:31.971Z,96856.84
2023-03-13T11:47:13.431Z,96839.41
2023-03-13T11:49:45.541Z,96850.50
2023-03-13T11:52:29.118Z,96831.16
2023-03-13T11:55:17.082Z,96840.97
2023-03-13T11:58:12.479Z,96835.41
2023-03-13T12:01:06.353Z,96824.69
2023-03-13T12:03:57.550Z,96812.81
2023-03-13T12:06:34.052Z,96814.25
2023-03-13T12:09:31.325Z,96811.53
2023-03-13T12:12:11.193Z,96806.13
2023-03-13T12:14:53.346Z,96779.09
2023-03-13T12:17:31.721Z,96786.38
2023-03-13T12:20:13.304Z,96766.56
2023-03-13T12:22:46.486Z,96757.22
2023-03-13T12:25:21.336Z,96758.00
2023-03-13T12:27:54.751Z,96744.94
2023-03-13T12:30:41.547Z,96721.09
2023-03-13T12:33:28.507Z,96709.41
2023-03-13T12:36:05.842Z,96738.47
2023-03-13T12:38:48.409Z,96718.69
2023-03-13T12:41:24.735Z,96731.66
2023-03-13T12:44:07.832Z,96721.41
2023-03-13T12:46:37.998Z,96716.31
2023-03-13T12:49:12.914Z,96730.84
2023-03-13T12:51:48.061Z,96714.69
2023-03-13T12:54:33.214Z,96701.88
2023-03-13T12:57:29.732Z,96694.06
2023-03-13T13:00:07.797Z,96685.19
2023-03-13T13:02:34.418Z,96697.28
2023-03-13T13:05:02.831Z,96686.38
2023-03-13T13:07:34.450Z,96681.91
2023-03-13T13:10:15.652Z,96682.03
2023-03-13T13:12:46.807Z,96681.44
2023-03-13T13:15:22.507Z,96663.00
2023-03-13T13:18:04.250Z,96664.09
2023-03-13T13:20:45.568Z,96635.06
2023-03-13T13:23:23.142Z,96653.41
2023-03-13T13:25:50.597Z,96651.00
2023-03-13T13:28:19.191Z,96655.03
2023-03-13T13:30:45.755Z,96641.09
2023-03-13T13:33:18.603Z,96643.63
2023-03-13T13:35:47.287Z,96615.53
2023-03-13T13:38:19.915Z,96621.84
2023-03-13T13:41:03.548Z,96610.59
2023-03-13T13:43:33.012Z,96601.97
2023-03-13T13:46:20.005Z,96578.53
2023-03-13T13:48:46.640Z,96556.56
2023-03-13T13:51:15.646Z,96572.66
2023-03-13T13:53:47.151Z,96533.34
2023-03-13T13:56:29.128Z,96550.50
2023-03-13T13:59:26.858Z,96542.34
2023-03-13T14:02:25.795Z,96538.19
2023-03-13T14:04:57.945Z,96528.44
2023-03-13T14:07:48.567Z,96506.38
2023-03-13T14:10:34.048Z,96500.47
2023-03-13T14:13:02.900Z,96495.59
2023-03-13T14:15:31.633Z,96490.78
2023-03-13T14:18:01.055Z,96472.88
2023-03-13T14:20:38.007Z,96477.88
2023-03-13T14:23:10.754Z,96464.56
2023-03-13T14:25:49.910Z,96467.28
2023-03-13T14:28:28.512Z,96459.94
2023-03-13T14:30:58.058Z,96451.25
2023-03-13T14:33:29.527Z,96430.84
2023-03-13T14:35:57.683Z,96425.44
2023-03-13T14:38:26.332Z,96435.75
2023-03-13T14:40:55.592Z,96427.09
2023-03-13T14:43:35.901Z,96425.72
2023-03-13T14:46:15.843Z,96419.22
2023-03-13T14:48:42.522Z,96406.13
2023-03-13T14:51:17.324Z,96404.28
2023-03-13T14:53:55.354Z,96389.31
2023-03-13T14:56:32.112Z,96395.28
2023-03-13T14:59:09.334Z,96396.63
2023-03-13T15:01:36.252Z,96379.34
2023-03-13T15:04:02.799Z,96394.81
2023-03-13T15:06:29.432Z,96362.47
2023-03-13T15:09:17.808Z,96351.88
2023-03-13T15:12:05.826Z,96348.22
2023-03-13T15:14:43.777Z,96347.84
2023-03-13T15:17:17.072Z,96339.06
2023-03-13T15:19:43.921Z,96331.06
2023-03-13T15:22:15.265Z,96321.47
2023-03-13T15:24:56.122Z,96296.41
2023-03-13T15:27:31.285Z,96331.13
2023-03-13T15:29:57.793Z,96325.84
2023-03-13T15:32:30.800Z,96325.72
2023-03-13T15:34:58.564Z,96338.94
2023-03-13T15:37:26.502Z,96341.22
2023-03-13T15:39:53.541Z,96303.56
2023-03-13T15:42:19.978Z,96360.66
2023-03-13T15:44:46.481Z,96335.16
2023-03-13T15:47:18.634Z,96325.78
2023-03-13T15:49:45.135Z,96333.31
2023-03-13T15:52:18.895Z,96345.75
2023-03-13T15:54:50.178Z,96346.88
2023-03-13T15:57:22.221Z,96342.63
2023-03-13T15:59:49.977Z,96334.63
2023-03-13T16:02:21.963Z,96343.25
2023-03-13T16:04:48.945Z,96317.44
2023-03-13T16:07:18.154Z,96319.88
2023-03-13T16:09:44.677Z,96312.38
2023-03-13T16:12:13.521Z,96373.22
2023-03-13T16:14:43.410Z,96423.06
2023-03-13T16:17:18.196Z,96448.91
2023-03-13T16:19:46.325Z,96472.47
2023-03-13T16:22:14.690Z,96422.16
2023-03-13T16:24:43.714Z,96405.91
2023-03-13T16:27:16.041Z,96480.50
2023-03-13T16:29:46.050Z,96467.03
2023-03-13T16:32:17.221Z,96499.72
2023-03-13T16:34:44.047Z,96513.75
2023-03-13T16:37:16.565Z,96524.44
2023-03-13T16:39:47.009Z,96540.56
2023-03-13T16:42:14.176Z,96550.88
2023-03-13T16:44:42.955Z,96557.28
2023-03-13T16:47:27.142Z,96574.00
2023-03-13T16:49:53.985Z,96530.56
2023-03-13T16:52:20.487Z,96543.34
2023-03-13T16:54:47.520Z,96552.84
2023-03-13T16:57:17.740Z,96534.59
2023-03-13T16:59:44.380Z,96536.19
2023-03-13T17:02:16.538Z,96504.06
2023-03-13T17:04:44.934Z,96506.94
2023-03-13T17:07:23.122Z,96497.13
2023-03-13T17:09:51.398Z,96468.00
2023-03-13T17:12:18.922Z,96480.44
2023-03-13T17:14:45.970Z,96463.88
2023-03-13T17:17:19.086Z,96433.25
2023-03-13T17:19:46.110Z,96424.34
2023-03-13T17:22:15.303Z,96408.13
2023-03-13T17:24:45.422Z,96414.84
2023-03-13T17:27:17.938Z,96433.31
2023-03-13T17:29:45.238Z,96421.13
2023-03-13T17:32:18.225Z,96451.41
2023-03-13T17:34:44.769Z,96429.38
2023-03-13T17:37:20.553Z,96450.25
2023-03-13T17:39:49.018Z,96460.34
2023-03-13T17:42:15.546Z,96453.13
2023-03-13T17:44:45.124Z,96439.78
2023-03-13T17:47:17.711Z,96470.75
2023-03-13T17:49:44.863Z,96484.28
2023-03-13T17:52:17.947Z,96488.03
2023-03-13T17:54:45.312Z,96495.09
2023-03-13T17:57:18.747Z,96517.13
2023-03-13T17:59:46.331Z,96530.56
2023-03-13T18:02:16.698Z,96527.94
2023-03-13T18:04:44.988Z,96548.81
2023-03-13T18:07:43.783Z,96580.22
2023-03-13T18:10:16.227Z,96604.88
2023-03-13T18:12:45.563Z,96608.00
2023-03-13T18:15:15.516Z,96647.31
2023-03-13T18:17:43.652Z,96681.78
2023-03-13T18:20:21.659Z,96750.00
2023-03-13T18:22:48.211Z,96737.59
2023-03-13T18:25:15.072Z,96739.84
2023-03-13T18:27:43.353Z,96701.88
2023-03-13T18:30:21.862Z,96697.00
2023-03-13T18:32:48.481Z,96714.78
2023-03-13T18:35:18.219Z,96774.97
2023-03-13T18:37:46.545Z,96740.69
2023-03-13T18:40:22.628Z,96761.72
2023-03-13T18:42:49.305Z,96768.22
2023-03-13T18:45:26.360Z,96764.16
2023-03-13T18:47:53.269Z,96781.88
2023-03-13T18:50:26.132Z,96801.44
2023-03-13T18:52:55.381Z,96833.56
2023-03-13T18:55:24.106Z,96814.81
2023-03-13T18:57:53.462Z,96814.59
2023-03-13T19:00:29.154Z,96814.63
2023-03-13T19:02:55.742Z,96833.56
2023-03-13T19:05:22.957Z,96836.81
2023-03-13T19:07:49.662Z,96824.28
2023-03-13T19:10:18.301Z,96804.00
2023-03-13T19:12:44.870Z,96819.13
2023-03-13T19:15:14.570Z,96851.69
2023-03-13T19:17:42.155Z,96873.00
2023-03-13T19:20:17.616Z,96884.47
2023-03-13T19:22:47.111Z,96902.44
2023-03-13T19:25:29.477Z,96901.66
2023-03-13T19:27:56.137Z,96897.44
2023-03-13T19:30:25.147Z,96912.56
2023-03-13T19:32:52.071Z,96917.69
2023-03-13T19:35:20.997Z,96873.50
2023-03-13T19:37:47.620Z,96909.81
2023-03-13T19:40:19.926Z,96899.25
2023-03-13T19:42:46.423Z,96911.28
2023-03-13T19:45:17.674Z,96916.44
2023-03-13T19:47:47.293Z,96912.44
2023-03-13T19:50:23.188Z,96944.31
2023-03-13T19:52:49.676Z,96944.22
2023-03-13T19:55:16.537Z,96967.91
2023-03-13T19:57:46.568Z,96967.16
2023-03-13T20:00:27.924Z,96971.38
2023-03-13T20:02:57.084Z,96947.78
2023-03-13T20:05:27.036Z,96941.06
2023-03-13T20:07:54.239Z,96938.97
2023-03-13T20:10:24.355Z,96955.56
2023-03-13T20:12:50.926Z,96923.22
2023-03-13T20:15:17.979Z,96910.31
2023-03-13T20:17:47.416Z,96899.53
2023-03-13T20:20:16.658Z,96879.13
2023-03-13T20:22:43.284Z,96877.94
2023-03-13T20:25:10.848Z,96903.88
2023-03-13T20:27:39.030Z,96896.50
2023-03-13T20:30:06.360Z,96877.59
2023-03-13T20:32:33.080Z,96863.56
2023-03-13T20:34:59.540Z,96880.53
2023-03-13T20:37:26.290Z,96888.75
2023-03-13T20:39:52.718Z,96854.88
2023-03-13T20:42:20.793Z,96853.38
2023-03-13T20:44:47.230Z,96872.72
2023-03-13T20:47:15.838Z,96880.84
2023-03-13T20:49:42.394Z,96901.25
2023-03-13T20:52:09.049Z,96901.81
2023-03-13T20:54:35.839Z,96892.09
2023-03-13T20:57:02.509Z,96867.66
2023-03-13T20:59:29.042Z,96869.28
2023-03-13T21:01:55.912Z,96852.97
2023-03-13T21:04:22.466Z,96842.16
2023-03-13T21:06:50.062Z,96815.44
2023-03-13T21:09:16.794Z,96794.63
2023-03-13T21:11:43.279Z,96797.31
2023-03-13T21:14:09.744Z,96777.13
2023-03-13T21:16:36.267Z,96766.72
2023-03-13T21:19:03.322Z,96741.88
2023-03-13T21:21:30.407Z,96762.66
2023-03-13T21:23:57.241Z,96787.34
2023-03-13T21:26:24.048Z,96776.50
2023-03-13T21:28:54.256Z,96790.75
2023-03-13T21:31:21.357Z,96802.25
2023-03-13T21:33:50.031Z,96801.66
2023-03-13T21:36:25.603Z,96807.31
2023-03-13T21:38:55.127Z,96805.66
2023-03-13T21:41:23.490Z,96813.59
2023-03-13T21:43:55.622Z,96833.81
2023-03-13T21:46:27.476Z,96852.91
2023-03-13T21:48:54.964Z,96815.41
2023-03-13T21:51:27.391Z,96833.00
2023-03-13T21:53:54.693Z,96828.09
2023-03-13T21:56:22.571Z,96827.94
2023-03-13T21:58:49.179Z,96828.06
2023-03-13T22:01:18.414Z,96826.38
2023-03-13T22:03:51.554Z,96842.25
2023-03-13T22:06:26.079Z,96841.69
2023-03-13T22:08:54.132Z,96843.97
2023-03-13T22:11:26.759Z,96831.09
2023-03-13T22:13:54.669Z,96831.50
2023-03-13T22:16:30.824Z,96830.03
2023-03-13T22:18:57.826Z,96815.78
2023-03-13T22:21:24.621Z,96809.47
2023-03-13T22:23:51.217Z,96787.06
2023-03-13T22:26:21.364Z,96781.13
2023-03-13T22:28:48.904Z,96770.31
2023-03-13T22:31:19.539Z,96740.94
2023-03-13T22:33:50.666Z,96750.09
2023-03-13T22:36:21.294Z,96738.63
2023-03-13T22:38:53.374Z,96740.28
2023-03-13T22:41:21.363Z,96755.53
2023-03-13T22:43:51.121Z,96731.53
2023-03-13T22:46:20.665Z,96726.41
2023-03-13T22:48:51.060Z,96730.88
2023-03-13T22:51:21.833Z,96736.41
2023-03-13T22:53:53.024Z,96723.75
2023-03-13T22:56:20.714Z,96725.72
2023-03-13T22:58:49.065Z,96749.22
2023-03-13T23:01:20.323Z,96743.88
2023-03-13T23:03:49.638Z,96741.81
2023-03-13T23:06:22.215Z,96727.56
2023-03-13T23:08:50.672Z,96714.91
2023-03-13T23:11:20.666Z,96710.19
2023-03-13T23:13:47.360Z,96698.78
2023-03-13T23:16:14.834Z,96681.47
2023-03-13T23:18:42.400Z,96688.16
2023-03-13T23:21:11.748Z,96680.44
2023-03-13T23:23:38.486Z,96669.84
2023-03-13T23:26:08.248Z,96668.19
2023-03-13T23:28:36.085Z,96673.66
2023-03-13T23:31:14.547Z,96676.13
2023-03-13T23:33:41.230Z,96676.09
2023-03-13T23:36:10.428Z,96674.31
2023-03-13T23:38:37.065Z,96667.22
2023-03-13T23:41:08.088Z,96660.00
2023-03-13T23:43:34.983Z,96648.00
2023-03-13T23:46:01.823Z,96653.31
2023-03-13T23:48:28.597Z,96638.25
2023-03-13T23:50:55.408Z,96633.34
2023-03-13T23:53:22.766Z,96624.59
2023-03-13T23:55:58.352Z,96637.84
2023-03-13T23:58:25.032Z,96623.38
